KCCR/CCR METAR and TAF weather

Enter ICAO airport designator
Station Type Date Time Source
KCCR METAR 2018/12/10 18:00 UTC NOAA

KCCR 101800Z 6SM HZ OVC023 12/07 A3027 RMK AO2 T01170072


Station Type Date Time Source
KCCR Decoded METAR 2018/12/10 18:00 UTC NOAA

CONCORD BUCHANAN FIELD, CA, United States (KCCR) 38-00N 122-03W 11M
Dec 10, 2018 - 01:00 PM EST / 2018.12.10 1800 UTC
Visibility: 6 mile(s):0
Sky conditions: overcast
Weather: haze
Temperature: 53.1 F (11.7 C)
Dew Point: 45.0 F (7.2 C)
Relative Humidity: 73%
Pressure (altimeter): 30.27 in. Hg (1025 hPa)
ob: KCCR 101800Z 6SM HZ OVC023 12/07 A3027 RMK AO2 T01170072
cycle: 18

Station Type Date Time Source
KCCR TAF 2016/02/08 18:39 UTC NOAA

TAF KCCR 081738Z 0818/0918 07006KT P6SM SKC
FM082000 06010KT P6SM SKC
FM090000 06005KT P6SM SKC
FM090600 VRB03KT P6SM SKC


Example: see airport list